Time;durP1;ratioP1;P1;durP2;ratioP2;P2;SDS_P1;SDS_P2;PMS_P1;PMS_P2;Temp;Humidity;BMP_temperature;BMP_pressure;BME280_temperature;BME280_humidity;BME280_pressure;Samples;Min_cycle;Max_cycle;Signal;HPM_P1;HPM_P2
2021/07/02 00:00:32;;;;;;;0.77;0.38;;;;;;;;;;5097050;28;20028;-72
2021/07/02 00:02:58;;;;;;;1.27;0.47;;;;;;;;;;5096561;28;20074;-72
2021/07/02 00:05:24;;;;;;;0.40;0.30;;;;;;;;;;5096545;28;20387;-72
2021/07/02 00:07:50;;;;;;;0.80;0.32;;;;;;;;;;5096892;28;20484;-71
2021/07/02 00:10:16;;;;;;;2.83;0.50;;;;;;;;;;5096543;28;20468;-71
2021/07/02 00:12:42;;;;;;;1.27;0.40;;;;;;;;;;5096487;28;20024;-72
2021/07/02 00:15:09;;;;;;;1.40;0.40;;;;;;;;;;5096576;28;20081;-72
2021/07/02 00:17:35;;;;;;;0.70;0.30;;;;;;;;;;5096432;28;20028;-72
2021/07/02 00:20:01;;;;;;;2.55;0.40;;;;;;;;;;5096627;28;20069;-72
2021/07/02 00:22:27;;;;;;;2.65;0.40;;;;;;;;;;5096649;28;20075;-72
2021/07/02 00:24:53;;;;;;;0.82;0.40;;;;;;;;;;5096254;28;20028;-72
2021/07/02 00:27:19;;;;;;;1.02;0.40;;;;;;;;;;5096620;28;20020;-72
2021/07/02 00:29:45;;;;;;;3.03;0.40;;;;;;;;;;5096095;28;20069;-71
2021/07/02 00:32:11;;;;;;;1.35;0.50;;;;;;;;;;5096196;28;20502;-72
2021/07/02 00:34:37;;;;;;;0.40;0.40;;;;;;;;;;5096198;28;20035;-71
2021/07/02 00:37:04;;;;;;;1.08;0.50;;;;;;;;;;5096233;28;20056;-72
2021/07/02 00:39:30;;;;;;;0.30;0.30;;;;;;;;;;5095973;28;20035;-72
2021/07/02 00:41:56;;;;;;;1.10;0.60;;;;;;;;;;5096246;28;20073;-72
2021/07/02 00:44:41;;;;;;;0.35;0.32;;;;;;;;;;5095740;28;20399;-72
2021/07/02 00:47:08;;;;;;;3.08;0.50;;;;;;;;;;5096340;28;20472;-72
2021/07/02 00:49:34;;;;;;;0.47;0.40;;;;;;;;;;5095839;28;20069;-72
2021/07/02 00:52:01;;;;;;;0.47;0.30;;;;;;;;;;5095815;28;20028;-72
2021/07/02 00:54:27;;;;;;;1.35;0.50;;;;;;;;;;5095771;28;20484;-72
2021/07/02 00:56:53;;;;;;;0.75;0.30;;;;;;;;;;5095581;28;20024;-71
2021/07/02 00:59:19;;;;;;;0.43;0.40;;;;;;;;;;5092822;28;20487;-72
2021/07/02 01:01:46;;;;;;;0.65;0.40;;;;;;;;;;5092778;28;20024;-72
2021/07/02 01:04:12;;;;;;;2.75;0.57;;;;;;;;;;5093159;28;20036;-72
2021/07/02 01:06:38;;;;;;;0.45;0.30;;;;;;;;;;5095052;28;20145;-72
2021/07/02 01:09:05;;;;;;;0.40;0.30;;;;;;;;;;5095427;28;20036;-72
2021/07/02 01:11:32;;;;;;;2.75;0.40;;;;;;;;;;5095572;28;20461;-72
2021/07/02 01:13:58;;;;;;;0.80;0.38;;;;;;;;;;5094975;28;20089;-71
2021/07/02 01:16:24;;;;;;;0.98;0.35;;;;;;;;;;5095306;28;20031;-72
2021/07/02 01:18:51;;;;;;;3.00;0.55;;;;;;;;;;5095217;28;20104;-72
2021/07/02 01:21:17;;;;;;;2.53;0.50;;;;;;;;;;5094856;28;20028;-72
2021/07/02 01:23:43;;;;;;;1.42;0.50;;;;;;;;;;5094985;28;20024;-72
2021/07/02 01:26:09;;;;;;;0.60;0.50;;;;;;;;;;5095218;28;20104;-72
2021/07/02 01:28:35;;;;;;;0.20;0.20;;;;;;;;;;5095050;28;20028;-72
2021/07/02 01:31:01;;;;;;;0.40;0.30;;;;;;;;;;5095315;28;20032;-72
2021/07/02 01:33:27;;;;;;;1.08;0.50;;;;;;;;;;5094571;28;20099;-72
2021/07/02 01:35:53;;;;;;;1.55;0.47;;;;;;;;;;5094560;28;20070;-72
2021/07/02 01:38:19;;;;;;;0.43;0.40;;;;;;;;;;5094774;28;20055;-72
2021/07/02 01:40:45;;;;;;;2.65;0.40;;;;;;;;;;5095088;28;20063;-71
2021/07/02 01:43:11;;;;;;;3.53;0.90;;;;;;;;;;5094656;28;20024;-71
2021/07/02 01:45:37;;;;;;;1.67;0.50;;;;;;;;;;5094568;28;20036;-72
2021/07/02 01:48:03;;;;;;;1.70;0.40;;;;;;;;;;5094665;28;20060;-72
2021/07/02 01:50:29;;;;;;;1.55;0.50;;;;;;;;;;5094382;28;20395;-71
2021/07/02 01:52:56;;;;;;;0.32;0.30;;;;;;;;;;5094577;28;20023;-72
2021/07/02 01:55:23;;;;;;;1.15;0.50;;;;;;;;;;5094686;28;20023;-71
2021/07/02 01:57:49;;;;;;;1.27;0.40;;;;;;;;;;5094296;28;20035;-72
2021/07/02 02:00:15;;;;;;;0.90;0.40;;;;;;;;;;5094321;28;20066;-72
2021/07/02 02:02:41;;;;;;;2.55;0.50;;;;;;;;;;5094129;28;20027;-72
2021/07/02 02:05:08;;;;;;;2.28;0.38;;;;;;;;;;5094149;28;20042;-72
2021/07/02 02:07:34;;;;;;;0.77;0.40;;;;;;;;;;5094313;28;20031;-72
2021/07/02 02:10:00;;;;;;;1.52;0.43;;;;;;;;;;5094406;28;20036;-72
2021/07/02 02:12:26;;;;;;;3.83;0.55;;;;;;;;;;5094537;28;20030;-72
2021/07/02 02:14:52;;;;;;;0.22;0.22;;;;;;;;;;5094036;28;20052;-71
2021/07/02 02:17:18;;;;;;;2.38;0.50;;;;;;;;;;5094113;28;20388;-72
2021/07/02 02:19:44;;;;;;;1.27;0.40;;;;;;;;;;5093412;28;20107;-72
2021/07/02 02:22:10;;;;;;;0.93;0.40;;;;;;;;;;5094422;28;20051;-72
2021/07/02 02:24:36;;;;;;;0.60;0.32;;;;;;;;;;5094010;28;20036;-72
2021/07/02 02:27:02;;;;;;;2.13;0.38;;;;;;;;;;5094088;28;20031;-72
2021/07/02 02:29:28;;;;;;;1.05;0.65;;;;;;;;;;5094119;28;20030;-72
2021/07/02 02:31:54;;;;;;;0.85;0.50;;;;;;;;;;5094026;28;20043;-72
2021/07/02 02:34:20;;;;;;;1.20;0.50;;;;;;;;;;5093633;28;20024;-72
2021/07/02 02:36:46;;;;;;;0.98;0.40;;;;;;;;;;5093992;28;20111;-72
2021/07/02 02:39:12;;;;;;;1.17;0.40;;;;;;;;;;5093975;28;20095;-72
2021/07/02 02:41:38;;;;;;;0.63;0.30;;;;;;;;;;5093814;28;20028;-72
2021/07/02 02:44:05;;;;;;;0.73;0.32;;;;;;;;;;5093647;28;20040;-72
2021/07/02 02:46:31;;;;;;;1.80;0.65;;;;;;;;;;5092709;28;20054;-72
2021/07/02 02:48:57;;;;;;;1.85;0.40;;;;;;;;;;5092517;28;20047;-72
2021/07/02 02:51:23;;;;;;;1.27;0.40;;;;;;;;;;5093580;28;20472;-72
2021/07/02 02:53:49;;;;;;;1.05;0.30;;;;;;;;;;5093640;28;20110;-72
2021/07/02 02:56:15;;;;;;;1.88;0.50;;;;;;;;;;5093599;28;20017;-72
2021/07/02 02:58:41;;;;;;;0.30;0.30;;;;;;;;;;5093647;28;20389;-72
2021/07/02 03:01:07;;;;;;;0.70;0.40;;;;;;;;;;5093243;28;20020;-72
2021/07/02 03:03:33;;;;;;;0.80;0.45;;;;;;;;;;5093181;28;20024;-72
2021/07/02 03:05:59;;;;;;;0.65;0.50;;;;;;;;;;5093072;28;20526;-72
2021/07/02 03:08:25;;;;;;;1.10;0.30;;;;;;;;;;5093393;28;20465;-72
2021/07/02 03:10:51;;;;;;;0.60;0.40;;;;;;;;;;5093530;28;20028;-72
2021/07/02 03:13:17;;;;;;;1.10;0.73;;;;;;;;;;5092829;28;20051;-72
2021/07/02 03:15:43;;;;;;;0.40;0.40;;;;;;;;;;5093363;28;20028;-72
2021/07/02 03:18:09;;;;;;;1.13;0.50;;;;;;;;;;5093542;28;20443;-72
2021/07/02 03:20:35;;;;;;;0.80;0.38;;;;;;;;;;5093217;28;20503;-72
2021/07/02 03:23:01;;;;;;;0.60;0.40;;;;;;;;;;5092965;28;20067;-72
2021/07/02 03:25:27;;;;;;;0.75;0.45;;;;;;;;;;5093376;28;20036;-72
2021/07/02 03:27:53;;;;;;;1.35;0.47;;;;;;;;;;5093106;28;20111;-72
2021/07/02 03:30:19;;;;;;;3.05;0.45;;;;;;;;;;5094209;28;20361;-73
2021/07/02 03:32:45;;;;;;;0.75;0.40;;;;;;;;;;5097135;28;20095;-72
2021/07/02 03:35:12;;;;;;;2.10;0.40;;;;;;;;;;5097287;28;20511;-72
2021/07/02 03:37:39;;;;;;;0.80;0.40;;;;;;;;;;5097067;28;20119;-72
2021/07/02 03:40:06;;;;;;;0.63;0.40;;;;;;;;;;5097282;28;20031;-72
2021/07/02 03:42:32;;;;;;;2.42;0.40;;;;;;;;;;5097114;28;20123;-71
2021/07/02 03:44:58;;;;;;;1.73;0.50;;;;;;;;;;5097071;28;20484;-72
2021/07/02 03:47:24;;;;;;;1.60;0.52;;;;;;;;;;5097215;28;20046;-72
2021/07/02 03:49:50;;;;;;;2.85;0.50;;;;;;;;;;5096741;28;20028;-72
2021/07/02 03:52:16;;;;;;;0.57;0.30;;;;;;;;;;5096929;28;20031;-71
2021/07/02 03:54:42;;;;;;;1.75;0.50;;;;;;;;;;5097037;28;20028;-72
2021/07/02 03:57:11;;;;;;;2.80;1.40;;;;;;;;;;5096645;28;20408;-72
2021/07/02 03:59:38;;;;;;;1.77;0.40;;;;;;;;;;5097159;28;20020;-72
2021/07/02 04:02:04;;;;;;;7.82;0.60;;;;;;;;;;5097070;28;20028;-72
2021/07/02 04:04:32;;;;;;;1.02;0.50;;;;;;;;;;5096397;28;20031;-72
2021/07/02 04:06:58;;;;;;;1.85;0.40;;;;;;;;;;5097030;28;20028;-72
2021/07/02 04:09:24;;;;;;;2.40;0.50;;;;;;;;;;5097052;28;20020;-72
2021/07/02 04:11:50;;;;;;;3.40;0.35;;;;;;;;;;5096630;28;20498;-72
2021/07/02 04:14:16;;;;;;;0.95;0.40;;;;;;;;;;5096231;28;20511;-72
2021/07/02 04:16:42;;;;;;;1.48;0.40;;;;;;;;;;5096414;28;20422;-72
2021/07/02 04:19:08;;;;;;;4.75;0.80;;;;;;;;;;5096584;28;20058;-72
2021/07/02 04:21:35;;;;;;;1.73;0.47;;;;;;;;;;5096569;28;20468;-72
2021/07/02 04:24:01;;;;;;;1.25;0.50;;;;;;;;;;5096237;28;20059;-71
2021/07/02 04:26:27;;;;;;;2.13;0.50;;;;;;;;;;5096266;28;20028;-72
2021/07/02 04:28:53;;;;;;;0.52;0.40;;;;;;;;;;5096472;28;20032;-72
2021/07/02 04:31:19;;;;;;;2.20;0.40;;;;;;;;;;5096360;28;20024;-72
2021/07/02 04:33:45;;;;;;;1.05;0.40;;;;;;;;;;5096153;28;20031;-72
2021/07/02 04:36:11;;;;;;;1.02;0.40;;;;;;;;;;5096102;28;20024;-72
2021/07/02 04:38:37;;;;;;;1.15;0.38;;;;;;;;;;5096418;28;20381;-72
2021/07/02 04:41:03;;;;;;;3.80;0.60;;;;;;;;;;5095690;28;20032;-72
2021/07/02 04:43:29;;;;;;;1.17;0.50;;;;;;;;;;5095309;28;20027;-72
2021/07/02 04:45:55;;;;;;;1.05;0.50;;;;;;;;;;5095676;28;20028;-72
2021/07/02 04:48:21;;;;;;;3.22;0.60;;;;;;;;;;5096095;28;20104;-72
2021/07/02 04:50:47;;;;;;;1.13;0.60;;;;;;;;;;5095610;28;20448;-72
2021/07/02 04:53:13;;;;;;;1.88;0.68;;;;;;;;;;5095377;28;20059;-73
2021/07/02 04:55:39;;;;;;;1.67;0.40;;;;;;;;;;5095482;28;20050;-71
2021/07/02 04:58:07;;;;;;;3.15;0.60;;;;;;;;;;5096027;28;20028;-72
2021/07/02 05:00:33;;;;;;;4.32;0.80;;;;;;;;;;5095539;28;20016;-72
2021/07/02 05:02:59;;;;;;;2.33;0.70;;;;;;;;;;5095081;28;20090;-72
2021/07/02 05:05:25;;;;;;;12.77;1.52;;;;;;;;;;5095281;28;20044;-72
2021/07/02 05:07:51;;;;;;;4.63;0.90;;;;;;;;;;5095318;28;20021;-72
2021/07/02 05:10:17;;;;;;;5.30;0.75;;;;;;;;;;5095655;28;20036;-72
2021/07/02 05:12:43;;;;;;;3.78;0.73;;;;;;;;;;5095432;28;20027;-72
2021/07/02 05:15:10;;;;;;;2.08;0.60;;;;;;;;;;5095399;28;20401;-72
2021/07/02 05:17:36;;;;;;;3.50;0.80;;;;;;;;;;5095364;28;20035;-72
2021/07/02 05:20:03;;;;;;;2.97;0.50;;;;;;;;;;5095651;28;20077;-72
2021/07/02 05:22:29;;;;;;;2.13;0.45;;;;;;;;;;5095597;28;20034;-72
2021/07/02 05:24:56;;;;;;;30.45;1.80;;;;;;;;;;5095120;28;20824;-72
2021/07/02 05:27:22;;;;;;;17.83;1.38;;;;;;;;;;5095218;28;20464;-72
2021/07/02 05:29:48;;;;;;;33.97;6.43;;;;;;;;;;5095207;28;20040;-73
2021/07/02 05:32:14;;;;;;;10.80;1.02;;;;;;;;;;5095060;28;20020;-72
2021/07/02 05:34:40;;;;;;;14.93;1.33;;;;;;;;;;5095370;28;20480;-72
2021/07/02 05:37:06;;;;;;;14.90;1.33;;;;;;;;;;5094919;28;20024;-72
2021/07/02 05:39:32;;;;;;;17.20;2.63;;;;;;;;;;5094896;28;20043;-72
2021/07/02 05:41:58;;;;;;;11.73;1.58;;;;;;;;;;5095070;28;20475;-72
2021/07/02 05:44:24;;;;;;;4.20;0.90;;;;;;;;;;5094704;28;20484;-72
2021/07/02 05:46:50;;;;;;;4.75;1.02;;;;;;;;;;5094652;28;20028;-72
2021/07/02 05:49:17;;;;;;;2.42;1.10;;;;;;;;;;5094625;28;20468;-72
2021/07/02 05:51:43;;;;;;;2.60;1.15;;;;;;;;;;5094405;28;20487;-72
2021/07/02 05:54:09;;;;;;;3.47;0.70;;;;;;;;;;5093350;28;20028;-72
2021/07/02 05:56:35;;;;;;;7.07;0.80;;;;;;;;;;5094461;28;20016;-71
2021/07/02 05:59:01;;;;;;;18.13;1.33;;;;;;;;;;5094562;28;20059;-71
2021/07/02 06:01:29;;;;;;;6.13;0.50;;;;;;;;;;5094739;28;20480;-72
2021/07/02 06:03:55;;;;;;;4.97;0.57;;;;;;;;;;5094594;28;20487;-72
2021/07/02 06:06:21;;;;;;;4.15;0.60;;;;;;;;;;5092836;28;20407;-72
2021/07/02 06:08:49;;;;;;;5.80;0.50;;;;;;;;;;5094267;28;20520;-72
2021/07/02 06:11:15;;;;;;;6.30;0.70;;;;;;;;;;5094412;28;20027;-72
2021/07/02 06:13:43;;;;;;;4.40;0.55;;;;;;;;;;5093962;28;20044;-71
2021/07/02 06:16:09;;;;;;;5.65;0.52;;;;;;;;;;5094391;28;20024;-72
2021/07/02 06:18:35;;;;;;;4.22;0.75;;;;;;;;;;5093994;28;20552;-72
2021/07/02 06:21:01;;;;;;;8.80;0.80;;;;;;;;;;5093758;28;20020;-72
2021/07/02 06:23:34;;;;;;;6.05;0.70;;;;;;;;;;5094016;28;20027;-72
2021/07/02 06:26:00;;;;;;;4.13;0.60;;;;;;;;;;5094041;28;20040;-71
2021/07/02 06:28:30;;;;;;;2.80;0.52;;;;;;;;;;5093755;28;20024;-72
2021/07/02 06:30:57;;;;;;;3.10;0.77;;;;;;;;;;5093888;28;20036;-72
2021/07/02 06:33:23;;;;;;;6.43;0.90;;;;;;;;;;5093831;28;20017;-72
2021/07/02 06:35:49;;;;;;;5.20;0.60;;;;;;;;;;5092311;28;20024;-72
2021/07/02 06:38:16;;;;;;;5.10;0.65;;;;;;;;;;5093911;28;20024;-71
2021/07/02 06:40:42;;;;;;;1.45;0.50;;;;;;;;;;5093541;28;20042;-72
2021/07/02 06:43:08;;;;;;;1.75;0.38;;;;;;;;;;5094258;28;20115;-72
2021/07/02 06:45:34;;;;;;;39.53;1.70;;;;;;;;;;5092535;28;20392;-71
2021/07/02 06:48:05;;;;;;;27.75;2.30;;;;;;;;;;5093354;28;20461;-71
2021/07/02 06:50:32;;;;;;;12.43;0.90;;;;;;;;;;5093730;28;20597;-71
2021/07/02 06:52:59;;;;;;;18.63;1.33;;;;;;;;;;5093433;28;20468;-71
2021/07/02 06:55:26;;;;;;;9.25;1.10;;;;;;;;;;5093373;28;20020;-72
2021/07/02 06:57:52;;;;;;;3.35;0.63;;;;;;;;;;5091658;28;20056;-72
2021/07/02 07:00:19;;;;;;;8.82;0.60;;;;;;;;;;5091566;28;20032;-71
2021/07/02 07:02:46;;;;;;;3.50;0.55;;;;;;;;;;5092863;28;20017;-71
2021/07/02 07:05:12;;;;;;;9.38;0.75;;;;;;;;;;5092527;28;20032;-71
2021/07/02 07:07:38;;;;;;;6.70;0.70;;;;;;;;;;5093349;28;20020;-72
2021/07/02 07:10:04;;;;;;;3.25;0.50;;;;;;;;;;5093572;28;20036;-71
2021/07/02 07:12:30;;;;;;;3.30;0.50;;;;;;;;;;5093199;28;20024;-72
2021/07/02 07:14:57;;;;;;;3.72;0.43;;;;;;;;;;5093030;28;20403;-72
2021/07/02 07:17:26;;;;;;;1.63;0.40;;;;;;;;;;5112999;28;20475;-71
2021/07/02 07:19:52;;;;;;;0.28;0.28;;;;;;;;;;5113655;28;20027;-72
2021/07/02 07:22:18;;;;;;;2.40;0.50;;;;;;;;;;5113193;28;20019;-72
2021/07/02 07:24:45;;;;;;;0.95;0.50;;;;;;;;;;5113422;28;20058;-72
2021/07/02 07:27:12;;;;;;;7.93;0.63;;;;;;;;;;5113211;28;20532;-72
2021/07/02 07:29:38;;;;;;;2.90;0.75;;;;;;;;;;5113482;28;20387;-72
2021/07/02 07:32:04;;;;;;;4.22;1.27;;;;;;;;;;5113395;28;20019;-72
2021/07/02 07:37:00;;;;;;;4.40;0.60;;;;;;;;;;5113349;28;20024;-72
2021/07/02 07:39:26;;;;;;;4.75;0.52;;;;;;;;;;5113592;28;20034;-72
2021/07/02 07:41:52;;;;;;;5.05;0.60;;;;;;;;;;5113703;28;20365;-72
2021/07/02 07:44:18;;;;;;;6.65;0.90;;;;;;;;;;5112951;28;20038;-71
2021/07/02 07:46:44;;;;;;;6.45;0.95;;;;;;;;;;5113207;28;20024;-72
2021/07/02 07:49:11;;;;;;;13.75;2.03;;;;;;;;;;5113508;28;20030;-73
2021/07/02 07:51:44;;;;;;;1.83;0.82;;;;;;;;;;5113380;28;20020;-72
2021/07/02 07:54:10;;;;;;;1.35;0.82;;;;;;;;;;5112661;28;20046;-72
2021/07/02 07:56:36;;;;;;;0.82;0.50;;;;;;;;;;5113083;28;20016;-72
2021/07/02 07:59:02;;;;;;;1.52;0.52;;;;;;;;;;5112956;28;20020;-72
2021/07/02 08:01:28;;;;;;;6.97;0.80;;;;;;;;;;5112834;28;20021;-72
2021/07/02 08:03:55;;;;;;;2.72;0.50;;;;;;;;;;5111700;28;20032;-72
2021/07/02 08:06:21;;;;;;;1.60;0.50;;;;;;;;;;5112973;28;20491;-72
2021/07/02 08:08:47;;;;;;;3.25;0.75;;;;;;;;;;5113133;28;20470;-70
2021/07/02 08:11:13;;;;;;;0.75;0.50;;;;;;;;;;5113055;28;20024;-70
2021/07/02 08:13:39;;;;;;;0.73;0.40;;;;;;;;;;5112983;28;20075;-71
2021/07/02 08:16:06;;;;;;;1.10;0.52;;;;;;;;;;5113286;28;20053;-71
2021/07/02 08:18:32;;;;;;;2.70;0.50;;;;;;;;;;5115754;28;20028;-71
2021/07/02 08:20:59;;;;;;;1.63;0.50;;;;;;;;;;5116631;27;20145;-72
2021/07/02 08:23:25;;;;;;;2.38;0.60;;;;;;;;;;5116537;28;20038;-71
2021/07/02 08:25:51;;;;;;;1.85;0.60;;;;;;;;;;5116330;28;20114;-71
2021/07/02 08:31:02;;;;;;;1.20;0.50;;;;;;;;;;5116637;28;20031;-72
2021/07/02 08:33:28;;;;;;;13.82;0.80;;;;;;;;;;5116372;28;20027;-72
2021/07/02 08:35:55;;;;;;;4.00;0.80;;;;;;;;;;5115719;28;20407;-72
2021/07/02 08:38:21;;;;;;;7.13;0.82;;;;;;;;;;5115278;28;20033;-72
2021/07/02 08:40:47;;;;;;;0.90;0.40;;;;;;;;;;5115617;28;20031;-72
2021/07/02 08:43:13;;;;;;;13.02;0.73;;;;;;;;;;5116329;28;20068;-71
2021/07/02 08:45:39;;;;;;;2.90;0.50;;;;;;;;;;5116583;28;20475;-71
2021/07/02 08:48:07;;;;;;;3.38;0.50;;;;;;;;;;5116512;28;20034;-71
2021/07/02 08:50:33;;;;;;;1.98;0.40;;;;;;;;;;5116521;28;20024;-72
2021/07/02 08:53:00;;;;;;;17.30;0.75;;;;;;;;;;5115883;28;20055;-72
2021/07/02 08:55:26;;;;;;;0.57;0.40;;;;;;;;;;5116228;28;20027;-72
2021/07/02 08:57:52;;;;;;;1.23;0.43;;;;;;;;;;5116339;28;20460;-72
2021/07/02 09:00:18;;;;;;;1.08;0.45;;;;;;;;;;5116400;28;20024;-72
2021/07/02 09:02:45;;;;;;;0.75;0.22;;;;;;;;;;5115912;28;20427;-72
2021/07/02 09:05:34;;;;;;;2.28;0.40;;;;;;;;;;5116140;28;20460;-72
2021/07/02 09:08:01;;;;;;;2.38;0.40;;;;;;;;;;5116381;28;20102;-73
2021/07/02 09:10:31;;;;;;;0.40;0.40;;;;;;;;;;5116095;28;20080;-72
2021/07/02 09:12:57;;;;;;;0.45;0.30;;;;;;;;;;5115782;28;20030;-71
2021/07/02 09:15:23;;;;;;;0.68;0.40;;;;;;;;;;5115799;28;20040;-69
2021/07/02 09:17:52;;;;;;;3.40;0.40;;;;;;;;;;5115922;28;20038;-72
2021/07/02 09:20:19;;;;;;;6.57;0.80;;;;;;;;;;5115630;28;20403;-71
2021/07/02 09:22:51;;;;;;;3.40;0.32;;;;;;;;;;5114951;28;20024;-72
2021/07/02 09:25:23;;;;;;;0.45;0.28;;;;;;;;;;5115228;28;20557;-72
2021/07/02 09:27:50;;;;;;;7.15;0.55;;;;;;;;;;5114747;28;20141;-71
2021/07/02 09:30:19;;;;;;;2.35;0.30;;;;;;;;;;5115415;28;20080;-73
2021/07/02 09:32:46;;;;;;;1.48;0.30;;;;;;;;;;5115403;28;20024;-71
2021/07/02 09:35:14;;;;;;;3.15;0.40;;;;;;;;;;5115198;28;20027;-72
2021/07/02 09:37:43;;;;;;;1.58;0.55;;;;;;;;;;5115266;28;20474;-71
2021/07/02 09:40:13;;;;;;;2.08;0.30;;;;;;;;;;5114981;28;20032;-71
2021/07/02 09:42:39;;;;;;;0.60;0.57;;;;;;;;;;5115186;28;20019;-71
2021/07/02 09:45:08;;;;;;;0.95;0.40;;;;;;;;;;5115173;28;20035;-71
2021/07/02 09:47:34;;;;;;;1.75;0.40;;;;;;;;;;5115024;28;20024;-73
2021/07/02 09:50:17;;;;;;;0.90;0.43;;;;;;;;;;5115379;27;20364;-70
2021/07/02 09:52:50;;;;;;;1.00;0.40;;;;;;;;;;5113728;28;20391;-72
2021/07/02 09:55:18;;;;;;;0.90;0.45;;;;;;;;;;5114902;28;20406;-72
2021/07/02 09:57:45;;;;;;;0.77;0.30;;;;;;;;;;5114556;28;20023;-72
2021/07/02 10:00:12;;;;;;;0.60;0.40;;;;;;;;;;5114828;28;20020;-72
2021/07/02 10:02:38;;;;;;;3.92;0.57;;;;;;;;;;5114698;28;20418;-72
2021/07/02 10:05:04;;;;;;;1.75;0.55;;;;;;;;;;5114556;28;20032;-71
2021/07/02 10:07:31;;;;;;;4.20;0.63;;;;;;;;;;5114672;28;20525;-71
2021/07/02 10:09:57;;;;;;;1.05;0.38;;;;;;;;;;5114710;28;20058;-73
2021/07/02 10:12:23;;;;;;;0.43;0.30;;;;;;;;;;5114121;28;20165;-72
2021/07/02 10:14:49;;;;;;;0.32;0.30;;;;;;;;;;5114151;28;20050;-72
2021/07/02 10:17:19;;;;;;;0.93;0.30;;;;;;;;;;5114740;27;20024;-73
2021/07/02 10:19:46;;;;;;;2.38;0.35;;;;;;;;;;5114488;28;20015;-72
2021/07/02 10:22:15;;;;;;;2.20;0.45;;;;;;;;;;5114141;28;20072;-71
2021/07/02 10:24:41;;;;;;;0.73;0.40;;;;;;;;;;5114121;28;20115;-72
2021/07/02 10:27:08;;;;;;;1.27;0.40;;;27.20;36.60;;;;;;5114347;28;20023;-71
2021/07/02 10:29:34;;;;;;;0.38;0.30;;;;;;;;;;5114294;28;20019;-71
2021/07/02 10:32:00;;;;;;;1.58;0.40;;;;;;;;;;5114568;28;20079;-72
2021/07/02 10:34:26;;;;;;;1.75;0.30;;;;;;;;;;5113974;28;20086;-69
2021/07/02 10:36:52;;;;;;;2.10;0.43;;;;;;;;;;5114098;28;20028;-71
2021/07/02 10:39:29;;;;;;;2.05;0.40;;;;;;;;;;5113774;28;20145;-72
2021/07/02 10:42:08;;;;;;;2.05;0.40;;;;;;;;;;5113594;28;20115;-72
2021/07/02 10:44:34;;;;;;;0.73;0.40;;;;;;;;;;5113582;27;20098;-72
2021/07/02 10:47:01;;;;;;;0.68;0.30;;;;;;;;;;5113716;28;20047;-72
2021/07/02 10:49:42;;;;;;;2.10;0.40;;;;;;;;;;5113641;28;20414;-71
2021/07/02 10:52:22;;;;;;;1.02;0.50;;;;;;;;;;5114004;28;20073;-72
2021/07/02 10:54:49;;;;;;;0.70;0.32;;;;;;;;;;5114033;28;20036;-71
2021/07/02 10:57:17;;;;;;;2.08;0.55;;;;;;;;;;5113883;28;20490;-72
2021/07/02 10:59:50;;;;;;;3.42;0.40;;;;;;;;;;5113894;28;20061;-72
2021/07/02 11:02:17;;;;;;;1.08;0.40;;;;;;;;;;5113483;28;20115;-72
2021/07/02 11:04:48;;;;;;;3.05;0.30;;;;;;;;;;5113646;28;20030;-72
2021/07/02 11:07:14;;;;;;;1.27;0.30;;;;;;;;;;5114011;28;20051;-71
2021/07/02 11:09:49;;;;;;;1.35;0.30;;;;;;;;;;5113846;28;20031;-71
2021/07/02 11:12:16;;;;;;;1.20;0.40;;;;;;;;;;5113432;28;20026;-70
2021/07/02 11:14:54;;;;;;;1.40;0.40;;;;;;;;;;5113202;28;20495;-71
2021/07/02 11:17:21;;;;;;;1.15;0.38;;;;;;;;;;5113924;28;20084;-72
2021/07/02 11:19:47;;;;;;;0.63;0.40;;;;;;;;;;5113785;28;20023;-70
2021/07/02 11:22:22;;;;;;;0.40;0.38;;;;;;;;;;5113417;28;20468;-71
2021/07/02 11:25:08;;;;;;;0.20;0.20;;;;;;;;;;5112997;28;20028;-70
2021/07/02 11:27:36;;;;;;;0.52;0.30;;;;;;;;;;5113250;28;20517;-71
2021/07/02 11:30:07;;;;;;;1.27;0.40;;;;;;;;;;5113374;28;20020;-70
2021/07/02 11:32:33;;;;;;;3.58;0.40;;;;;;;;;;5113238;28;20027;-69
2021/07/02 11:35:19;;;;;;;2.15;0.40;;;;;;;;;;5113159;28;20536;-70
2021/07/02 11:38:15;;;;;;;0.95;0.35;;;;;;;;;;5113214;28;20464;-70
2021/07/02 11:40:51;;;;;;;2.05;0.20;;;;;;;;;;5100405;28;20067;-72
2021/07/02 11:43:18;;;;;;;3.83;0.40;;;;;;;;;;5113467;28;20049;-72
2021/07/02 11:45:46;;;;;;;1.88;0.40;;;;;;;;;;5113229;28;20035;-72
2021/07/02 11:48:21;;;;;;;0.55;0.30;;;;;;;;;;5113229;28;20492;-71
2021/07/02 11:50:48;;;;;;;1.48;0.30;;;;;;;;;;5112170;28;20107;-70
2021/07/02 11:53:33;;;;;;;1.45;0.35;;;;;;;;;;5117205;28;20019;-70
2021/07/02 11:56:00;;;;;;;0.30;0.20;;;;;;;;;;5115702;28;20041;-71
2021/07/02 11:58:30;;;;;;;1.27;0.20;;;;;;;;;;5116951;28;20027;-71
2021/07/02 12:00:57;;;;;;;0.20;0.20;;;;;;;;;;5115992;28;20019;-69
2021/07/02 12:03:23;;;;;;;1.58;0.30;;;;;;;;;;5117046;28;20043;-70
2021/07/02 12:05:53;;;;;;;2.03;0.45;;;;;;;;;;5116926;28;20032;-69
2021/07/02 12:08:23;;;;;;;1.17;0.20;;;;;;;;;;5117081;28;20034;-69
2021/07/02 12:10:55;;;;;;;0.82;0.30;;;;;;;;;;5116954;28;20066;-70
2021/07/02 12:13:24;;;;;;;1.35;0.30;;;;;;;;;;5116925;27;20024;-70
2021/07/02 12:16:04;;;;;;;0.68;0.40;;;;;;;;;;5116814;27;20020;-71
2021/07/02 12:18:30;;;;;;;0.82;0.38;;;;;;;;;;5116932;28;20031;-70
2021/07/02 12:21:02;;;;;;;0.22;0.20;;;;;;;;;;5116760;28;20019;-70
2021/07/02 12:23:29;;;;;;;0.75;0.32;;;;;;;;;;5116674;28;20031;-70
2021/07/02 12:26:09;;;;;;;0.40;0.30;;;;;;;;;;5116562;28;20027;-69
2021/07/02 12:28:55;;;;;;;0.47;0.30;;;;;;;;;;5116464;28;20073;-70
2021/07/02 12:31:45;;;;;;;1.50;0.40;;;;;;;;;;5116555;28;20065;-69
2021/07/02 12:34:12;;;;;;;1.98;0.50;;;;;;;;;;5108501;28;20038;-73
2021/07/02 12:36:50;;;;;;;1.30;0.47;;;;;;;;;;5116758;28;20032;-72
2021/07/02 12:39:16;;;;;;;3.30;0.50;;;;;;;;;;5116498;28;20028;-74
2021/07/02 12:41:47;;;;;;;6.18;1.02;;;28.50;37.70;;;;;;5116686;27;20525;-74
2021/07/02 12:44:19;;;;;;;14.95;1.40;;;28.40;38.50;;;;;;5116258;28;20034;-73
2021/07/02 12:46:45;;;;;;;2.45;0.70;;;;;;;;;;5116554;28;20035;-73
2021/07/02 12:49:20;;;;;;;4.78;0.50;;;;;;;;;;5116340;28;20023;-73
2021/07/02 12:54:47;;;;;;;3.35;0.68;;;;;;;;;;5116228;28;20035;-72
2021/07/02 12:55:03;;;;;;;3.05;0.73;;;;;;;;;;5116263;28;20032;-71
2021/07/02 12:57:30;;;;;;;4.45;0.60;;;;;;;;;;5116055;28;20477;-70
2021/07/02 12:59:56;;;;;;;3.40;0.60;;;;;;;;;;5115976;28;20389;-71
2021/07/02 13:02:29;;;;;;;6.28;0.80;;;;;;;;;;5115546;28;20103;-71
2021/07/02 13:04:56;;;;;;;2.70;0.60;;;;;;;;;;5115344;28;20067;-71
2021/07/02 13:07:22;;;;;;;6.15;0.68;;;;;;;;;;5115859;28;20020;-71
2021/07/02 13:09:48;;;;;;;2.65;0.52;;;;;;;;;;5115602;28;20102;-71
2021/07/02 13:12:16;;;;;;;10.80;0.75;;;;;;;;;;5114085;28;20027;-72
2021/07/02 13:14:44;;;;;;;1.98;0.60;;;;;;;;;;5115200;28;20051;-71
2021/07/02 13:17:12;;;;;;;9.48;0.63;;;28.30;39.30;;;;;;5115623;28;20700;-71
2021/07/02 13:19:38;;;;;;;3.83;0.75;;;27.30;43.70;;;;;;5115459;28;20020;-71
2021/07/02 13:22:30;;;;;;;2.78;0.63;;;27.30;43.70;;;;;;5115551;28;20102;-72
2021/07/02 13:25:02;;;;;;;;;;;27.30;43.80;;;;;;5113080;28;20039;-71
2021/07/02 13:27:28;;;;;;;2.65;0.70;;;27.40;44.10;;;;;;5115554;28;19911;-70
2021/07/02 13:30:07;;;;;;;1.55;0.60;;;27.50;44.00;;;;;;5115500;28;20383;-72
2021/07/02 13:32:34;;;;;;;4.78;0.68;;;27.60;43.80;;;;;;5115210;28;20547;-72
2021/07/02 13:34:59;;;;;;;1.75;0.60;;;27.60;43.30;;;;;;5115501;28;20023;-72
2021/07/02 13:37:27;;;;;;;3.55;0.55;;;27.70;43.30;;;;;;5114442;28;20031;-68
2021/07/02 13:39:52;;;;;;;1.83;0.50;;;27.60;43.60;;;;;;5114479;28;20026;-69
2021/07/02 13:42:26;;;;;;;6.10;0.60;;;27.60;43.50;;;;;;5114443;28;20031;-69
2021/07/02 13:45:13;;;;;;;2.90;0.50;;;27.60;42.60;;;;;;5114935;28;20487;-70
2021/07/02 13:47:38;;;;;;;1.85;0.50;;;27.50;42.80;;;;;;5115016;28;20072;-69
2021/07/02 13:50:06;;;;;;;2.50;0.60;;;27.60;43.00;;;;;;5113288;28;20031;-69
2021/07/02 13:52:32;;;;;;;1.38;0.50;;;27.50;43.30;;;;;;5112114;28;20026;-68
2021/07/02 13:54:58;;;;;;;4.15;0.60;;;27.50;43.50;;;;;;5113059;28;20032;-70
2021/07/02 13:57:25;;;;;;;3.28;0.63;;;27.50;43.20;;;;;;5113680;28;20016;-70
2021/07/02 13:59:52;;;;;;;1.75;0.70;;;27.50;43.00;;;;;;5114420;28;20039;-74
2021/07/02 14:02:18;;;;;;;2.45;0.60;;;27.50;43.00;;;;;;5114535;28;20029;-68
2021/07/02 14:04:43;;;;;;;2.10;0.60;;;27.50;43.70;;;;;;5114240;28;20155;-69
2021/07/02 14:07:09;;;;;;;3.58;0.70;;;27.50;43.70;;;;;;5114489;28;20038;-69
2021/07/02 14:09:35;;;;;;;2.70;0.50;;;27.50;44.10;;;;;;5114379;28;20050;-70
2021/07/02 14:12:01;;;;;;;4.05;0.60;;;27.40;44.90;;;;;;5114417;27;20054;-69
2021/07/02 14:14:27;;;;;;;8.35;0.95;;;27.40;45.30;;;;;;5113604;28;20448;-69
2021/07/02 14:16:53;;;;;;;7.57;0.60;;;27.30;45.90;;;;;;5113993;28;20015;-70
2021/07/02 14:19:19;;;;;;;1.48;0.70;;;27.30;46.50;;;;;;5114178;28;20058;-70
2021/07/02 14:21:45;;;;;;;2.25;0.65;;;27.20;46.80;;;;;;5114260;28;20012;-69
2021/07/02 14:24:13;;;;;;;2.25;0.50;;;27.20;47.00;;;;;;5113485;28;20119;-72
2021/07/02 14:26:39;;;;;;;5.05;0.50;;;27.20;46.90;;;;;;5113299;28;20516;-69
2021/07/02 14:29:06;;;;;;;1.13;0.50;;;27.20;47.20;;;;;;5113929;28;20477;-70
2021/07/02 14:31:33;;;;;;;2.17;0.70;;;27.10;46.70;;;;;;5114405;28;20023;-71
2021/07/02 14:33:59;;;;;;;2.20;0.40;;;27.10;46.60;;;;;;5113939;28;21000;-69
2021/07/02 14:36:25;;;;;;;2.95;0.60;;;27.10;46.50;;;;;;5113671;28;20446;-70